createdAt,value
2022-10-23T00:04:21.185Z,12.60
2022-10-23T00:34:23.897Z,12.32
2022-10-23T01:04:29.026Z,11.65
2022-10-23T01:34:31.721Z,11.59
2022-10-23T02:04:37.326Z,11.20
2022-10-23T02:34:40.073Z,10.94
2022-10-23T03:04:46.012Z,10.79
2022-10-23T03:34:48.727Z,10.76
2022-10-23T04:04:53.242Z,10.81
2022-10-23T04:34:56.243Z,10.87
2022-10-23T05:05:00.496Z,11.00
2022-10-23T05:35:03.278Z,10.81
2022-10-23T06:05:07.152Z,10.89
2022-10-23T06:35:09.888Z,11.06
2022-10-23T07:05:17.110Z,11.20
2022-10-23T07:35:19.937Z,11.33
2022-10-23T08:05:24.811Z,11.45
2022-10-23T08:35:27.638Z,11.40
2022-10-23T09:05:32.656Z,11.68
2022-10-23T09:35:35.382Z,11.68
2022-10-23T10:05:39.165Z,11.83
2022-10-23T10:35:42.002Z,12.66
2022-10-23T11:05:46.720Z,13.77
2022-10-23T11:35:49.502Z,14.24
2022-10-23T12:05:53.448Z,14.75
2022-10-23T12:35:56.339Z,15.25
2022-10-23T13:06:01.672Z,15.46
2022-10-23T13:36:05.212Z,15.39
2022-10-23T14:06:09.660Z,15.32
2022-10-23T14:36:12.655Z,15.09
2022-10-23T15:06:18.451Z,14.72
2022-10-23T15:36:21.416Z,14.12
2022-10-23T16:06:26.555Z,13.18
2022-10-23T16:36:29.436Z,12.54
2022-10-23T17:06:37.418Z,12.11
2022-10-23T17:36:41.047Z,11.76
2022-10-23T18:06:47.327Z,11.48
2022-10-23T18:36:50.184Z,11.55
2022-10-23T19:06:54.583Z,11.55
2022-10-23T19:36:57.339Z,11.50
2022-10-23T20:07:01.482Z,11.34
2022-10-23T20:37:04.395Z,11.18
2022-10-23T21:07:10.774Z,11.13
2022-10-23T21:37:14.978Z,10.62
2022-10-23T22:07:19.169Z,10.40
2022-10-23T22:37:21.961Z,10.36
2022-10-23T23:07:25.810Z,10.39
2022-10-23T23:37:28.566Z,10.24
